Time;durP1;ratioP1;P1;durP2;ratioP2;P2;SDS_P1;SDS_P2;PMS_P1;PMS_P2;Temp;Humidity;BMP_temperature;BMP_pressure;BME280_temperature;BME280_humidity;BME280_pressure;Samples;Min_cycle;Max_cycle;Signal;HPM_P1;HPM_P2
2022/01/19 00:01:41;;;;;;;93.33;42.40;;;4.90;99.90;;;;;;4995554;28;20057;-73
2022/01/19 00:04:07;;;;;;;93.03;41.57;;;4.90;99.90;;;;;;5010920;28;20091;-73
2022/01/19 00:06:32;;;;;;;95.03;40.70;;;4.90;99.90;;;;;;5011858;28;20564;-74
2022/01/19 00:08:58;;;;;;;94.10;42.13;;;4.90;99.90;;;;;;5011972;28;20076;-74
2022/01/19 00:11:27;;;;;;;95.20;41.87;;;4.90;99.90;;;;;;5012110;28;20058;-74
2022/01/19 00:13:53;;;;;;;90.93;41.07;;;4.90;99.90;;;;;;4995339;28;20034;-74
2022/01/19 00:16:20;;;;;;;92.17;41.43;;;4.90;99.90;;;;;;4995099;28;20587;-74
2022/01/19 00:18:46;;;;;;;87.33;40.20;;;4.90;99.90;;;;;;5010757;28;20041;-74
2022/01/19 00:21:12;;;;;;;86.40;39.07;;;5.00;99.90;;;;;;4994528;28;21347;-74
2022/01/19 00:23:38;;;;;;;83.63;36.80;;;5.00;99.90;;;;;;5011552;28;20098;-74
2022/01/19 00:26:04;;;;;;;84.57;38.37;;;5.00;99.90;;;;;;5010308;28;20203;-74
2022/01/19 00:28:30;;;;;;;86.47;39.83;;;5.00;99.90;;;;;;4977003;28;20177;-74
2022/01/19 00:30:55;;;;;;;89.77;41.03;;;5.00;99.90;;;;;;4991488;28;20157;-73
2022/01/19 00:33:21;;;;;;;86.87;39.57;;;5.00;99.90;;;;;;5046554;28;20446;-74
2022/01/19 00:35:49;;;;;;;88.87;37.47;;;5.00;99.90;;;;;;5030511;28;20056;-74
2022/01/19 00:38:14;;;;;;;77.43;35.73;;;5.00;99.90;;;;;;5046569;28;20235;-74
2022/01/19 00:40:41;;;;;;;80.00;35.33;;;5.00;99.90;;;;;;5030471;28;20040;-74
2022/01/19 00:43:07;;;;;;;88.53;37.57;;;5.00;99.90;;;;;;5028071;28;20033;-74
2022/01/19 00:45:34;;;;;;;92.13;38.20;;;5.00;99.90;;;;;;5046840;28;20040;-74
2022/01/19 00:48:00;;;;;;;95.30;38.83;;;5.00;99.90;;;;;;5029032;28;20047;-74
2022/01/19 00:50:28;;;;;;;89.00;38.23;;;5.00;99.90;;;;;;5030259;28;20045;-73
2022/01/19 00:52:54;;;;;;;85.07;38.37;;;5.00;99.90;;;;;;5014143;28;20067;-74
2022/01/19 00:55:22;;;;;;;87.67;36.73;;;5.00;99.90;;;;;;5046411;28;20600;-74
2022/01/19 00:57:49;;;;;;;90.53;38.73;;;5.00;99.90;;;;;;5013370;28;20048;-74
2022/01/19 01:00:20;;;;;;;88.73;38.33;;;5.00;99.90;;;;;;5027093;28;20360;-74
2022/01/19 01:02:46;;;;;;;101.17;41.37;;;5.00;99.90;;;;;;5043411;28;20067;-74
2022/01/19 01:05:12;;;;;;;111.17;42.60;;;5.00;99.90;;;;;;5016744;28;20032;-74
2022/01/19 01:07:38;;;;;;;116.70;42.40;;;5.00;99.90;;;;;;5029689;28;20037;-74
2022/01/19 01:10:09;;;;;;;127.13;44.73;;;5.00;99.90;;;;;;5030077;28;20040;-74
2022/01/19 01:12:53;;;;;;;;;;;5.00;99.90;;;;;;5032666;28;20445;-74
2022/01/19 01:18:18;;;;;;;119.43;45.17;;;4.90;99.90;;;;;;5029370;28;20050;-74
2022/01/19 01:20:46;;;;;;;106.40;42.03;;;4.90;99.90;;;;;;4999278;28;20043;-74
2022/01/19 01:23:12;;;;;;;109.33;40.73;;;4.90;99.90;;;;;;5045149;28;20136;-74
2022/01/19 01:25:38;;;;;;;106.10;39.60;;;4.80;99.90;;;;;;5045346;28;20136;-74
2022/01/19 01:28:06;;;;;;;95.03;39.87;;;4.90;99.90;;;;;;5012038;28;20116;-74
2022/01/19 01:30:33;;;;;;;91.57;38.03;;;4.90;99.90;;;;;;5009619;28;20148;-74
2022/01/19 01:32:58;;;;;;;89.87;39.60;;;4.80;99.90;;;;;;5047794;28;20048;-74
2022/01/19 01:35:25;;;;;;;95.53;40.57;;;4.80;99.90;;;;;;5031413;28;20048;-74
2022/01/19 01:37:51;;;;;;;92.77;39.03;;;4.80;99.90;;;;;;5029808;28;20040;-74
2022/01/19 01:40:16;;;;;;;101.57;40.47;;;4.80;99.90;;;;;;5031539;28;20045;-74
2022/01/19 01:42:42;;;;;;;104.90;40.07;;;4.80;99.90;;;;;;5030434;28;20446;-74
2022/01/19 01:45:17;;;;;;;111.63;42.13;;;4.80;99.90;;;;;;5029378;28;20417;-74
2022/01/19 01:47:48;;;;;;;109.17;43.23;;;4.80;99.90;;;;;;5041021;28;20055;-74
2022/01/19 01:55:26;;;;;;;112.13;42.93;;;4.80;99.90;;;;;;5029480;28;20820;-74
2022/01/19 01:57:52;;;;;;;109.43;43.33;;;4.70;99.90;;;;;;4997157;28;20128;-74
2022/01/19 02:00:25;;;;;;;101.73;42.37;;;4.70;99.90;;;;;;5027325;28;20041;-74
2022/01/19 02:02:51;;;;;;;111.20;43.73;;;4.80;99.90;;;;;;5045087;28;20115;-74
2022/01/19 02:05:21;;;;;;;120.23;44.57;;;4.80;99.90;;;;;;5029480;28;20102;-75
2022/01/19 02:08:02;;;;;;;116.68;44.83;;;4.80;99.90;;;;;;5029068;28;20055;-74
2022/01/19 02:16:16;;;;;;;99.87;45.83;;;4.80;99.90;;;;;;5031996;28;20053;-74
2022/01/19 02:21:39;;;;;;;96.70;43.93;;;4.80;99.90;;;;;;5025360;28;21275;-74
2022/01/19 02:24:08;;;;;;;107.70;45.17;;;4.70;99.90;;;;;;5019110;28;20056;-74
2022/01/19 02:36:35;;;;;;;122.30;46.23;;;4.60;99.90;;;;;;5030149;28;20095;-74
2022/01/19 02:40:15;;;;;;;124.73;50.23;;;4.50;99.90;;;;;;5031197;28;20037;-74
2022/01/19 02:42:55;;;;;;;146.47;51.33;;;4.50;99.90;;;;;;5032942;28;20055;-74
2022/01/19 02:50:36;;;;;;;112.53;46.60;;;4.40;99.90;;;;;;5031296;28;20057;-74
2022/01/19 02:53:02;;;;;;;129.47;49.73;;;4.40;99.90;;;;;;5031746;28;20040;-74
2022/01/19 02:55:30;;;;;;;130.47;49.60;;;4.40;99.90;;;;;;5037619;28;20033;-74
2022/01/19 02:57:56;;;;;;;125.03;49.17;;;4.30;99.90;;;;;;5034243;28;20510;-74
2022/01/19 03:08:50;;;;;;;100.57;45.43;;;4.40;99.90;;;;;;5054481;28;20059;-74
2022/01/19 03:11:19;;;;;;;96.93;46.30;;;4.30;99.90;;;;;;5047356;28;20052;-74
2022/01/19 03:13:48;;;;;;;119.00;50.67;;;4.30;99.90;;;;;;5033365;28;20037;-74
2022/01/19 03:16:17;;;;;;;114.93;49.43;;;4.30;99.90;;;;;;5038638;28;20037;-74
2022/01/19 03:18:43;;;;;;;139.23;52.00;;;4.30;99.90;;;;;;5053994;28;20580;-74
2022/01/19 03:21:09;;;;;;;162.73;56.97;;;4.20;99.90;;;;;;5053747;28;20080;-74
2022/01/19 03:23:35;;;;;;;135.33;54.17;;;4.20;99.90;;;;;;5070897;28;20052;-74
2022/01/19 03:26:06;;;;;;;127.80;53.30;;;4.20;99.90;;;;;;5014218;28;20053;-73
2022/01/19 03:28:36;;;;;;;131.10;53.27;;;4.20;99.90;;;;;;5043027;28;20055;-74
2022/01/19 03:31:05;;;;;;;127.00;53.10;;;4.20;99.90;;;;;;5015875;28;20372;-74
2022/01/19 03:33:31;;;;;;;127.77;54.83;;;4.30;99.90;;;;;;5050795;28;20075;-74
2022/01/19 03:35:57;;;;;;;127.07;54.27;;;4.20;99.90;;;;;;5053094;28;20044;-74
2022/01/19 03:38:23;;;;;;;122.90;55.60;;;4.20;99.90;;;;;;5053285;28;20598;-74
2022/01/19 03:40:49;;;;;;;131.67;56.07;;;4.10;99.90;;;;;;5053431;28;20066;-74
2022/01/19 03:43:15;;;;;;;137.10;56.53;;;4.20;99.90;;;;;;5036072;28;20054;-73
2022/01/19 03:45:50;;;;;;;125.73;55.20;;;4.10;99.90;;;;;;5053272;28;20148;-74
2022/01/19 03:48:32;;;;;;;131.33;56.93;;;4.10;99.90;;;;;;5052457;28;20064;-73
2022/01/19 03:50:58;;;;;;;123.40;56.63;;;4.10;99.90;;;;;;5036852;28;20165;-73
2022/01/19 03:53:24;;;;;;;135.50;56.90;;;4.10;99.90;;;;;;5052690;28;20041;-74
2022/01/19 03:55:49;;;;;;;164.70;60.97;;;4.10;99.90;;;;;;5035467;28;20084;-74
2022/01/19 03:58:15;;;;;;;160.50;60.57;;;4.10;99.90;;;;;;5048591;28;20045;-74
2022/01/19 04:00:43;;;;;;;160.83;61.10;;;4.10;99.90;;;;;;5048618;28;20044;-74
2022/01/19 04:03:12;;;;;;;158.13;59.00;;;4.00;99.90;;;;;;5025817;28;20041;-74
2022/01/19 04:06:06;;;;;;;157.07;58.57;;;4.00;99.90;;;;;;5033002;28;20504;-74
2022/01/19 04:08:25;;;;;;;170.43;60.17;;;4.00;99.90;;;;;;5030954;28;20091;-73
2022/01/19 04:10:51;;;;;;;152.17;57.23;;;4.00;99.90;;;;;;5035318;28;20045;-74
2022/01/19 04:15:55;;;;;;;169.20;59.73;;;4.00;99.90;;;;;;5033003;28;20056;-74
2022/01/19 04:18:21;;;;;;;168.63;58.70;;;3.90;99.90;;;;;;5015726;28;20131;-74
2022/01/19 04:20:52;;;;;;;172.50;60.17;;;4.00;99.90;;;;;;5032745;28;20526;-73
2022/01/19 04:23:19;;;;;;;199.03;63.17;;;3.90;99.90;;;;;;5032865;28;20041;-73
2022/01/19 04:25:45;;;;;;;188.13;64.10;;;3.90;99.90;;;;;;5031754;28;20308;-73
2022/01/19 04:28:12;;;;;;;177.77;62.77;;;3.90;99.90;;;;;;5032583;28;20056;-74
2022/01/19 04:30:39;;;;;;;160.50;59.63;;;3.90;99.90;;;;;;5032682;28;20049;-73
2022/01/19 04:35:43;;;;;;;146.80;59.13;;;3.90;99.90;;;;;;5013193;28;20057;-74
2022/01/19 04:44:07;;;;;;;143.60;55.10;;;3.90;99.90;;;;;;5026952;28;20487;-74
2022/01/19 05:05:34;;;;;;;234.63;66.50;;;3.70;99.90;;;;;;5012554;28;20049;-74
2022/01/19 05:08:11;;;;;;;257.80;70.13;;;3.60;99.90;;;;;;5016200;28;20106;-74
2022/01/19 05:13:26;;;;;;;258.97;70.00;;;3.60;99.90;;;;;;5032059;28;20084;-74
2022/01/19 05:15:52;;;;;;;212.03;67.17;;;3.60;99.90;;;;;;5040866;28;20064;-73
2022/01/19 05:18:18;;;;;;;245.03;72.03;;;3.60;99.90;;;;;;5011560;28;20408;-74
2022/01/19 05:20:45;;;;;;;192.40;68.40;;;3.60;99.90;;;;;;4995902;28;20049;-73
2022/01/19 05:23:12;;;;;;;199.47;68.13;;;3.60;99.90;;;;;;5012396;28;20558;-74
2022/01/19 05:25:38;;;;;;;168.77;65.23;;;3.60;99.90;;;;;;5000270;28;20473;-73
2022/01/19 05:28:04;;;;;;;162.13;61.10;;;3.70;99.90;;;;;;5011978;28;20037;-73
2022/01/19 05:30:30;;;;;;;147.67;60.07;;;3.70;99.90;;;;;;4980363;28;20084;-74
2022/01/19 05:32:56;;;;;;;144.07;60.57;;;3.60;99.90;;;;;;5006941;28;20049;-74
2022/01/19 05:35:22;;;;;;;162.37;61.37;;;3.70;99.90;;;;;;5011550;28;20037;-74
2022/01/19 05:37:48;;;;;;;139.33;60.33;;;3.70;99.90;;;;;;5011048;28;20128;-74
2022/01/19 05:40:14;;;;;;;157.63;63.17;;;3.70;99.90;;;;;;4979431;28;20087;-74
2022/01/19 05:42:41;;;;;;;141.33;58.47;;;3.70;99.90;;;;;;4995516;28;20061;-74
2022/01/19 05:45:07;;;;;;;134.37;57.63;;;3.70;99.90;;;;;;4995865;28;20048;-74
2022/01/19 05:47:33;;;;;;;135.23;59.10;;;3.70;99.90;;;;;;4995644;28;20034;-74
2022/01/19 05:49:59;;;;;;;131.07;57.20;;;3.70;99.90;;;;;;5011118;28;20056;-74
2022/01/19 05:52:28;;;;;;;127.03;56.90;;;3.70;99.90;;;;;;4979125;28;20504;-74
2022/01/19 05:54:53;;;;;;;114.50;53.30;;;3.70;99.90;;;;;;4995507;28;20056;-73
2022/01/19 05:57:19;;;;;;;120.43;55.60;;;3.70;99.90;;;;;;4991137;28;20045;-74
2022/01/19 05:59:46;;;;;;;112.67;55.63;;;3.70;99.90;;;;;;4995909;28;20058;-74
2022/01/19 06:02:12;;;;;;;115.90;55.73;;;3.70;99.90;;;;;;4995126;28;20045;-74
2022/01/19 06:04:38;;;;;;;115.40;54.47;;;3.70;99.90;;;;;;4978849;28;20053;-74
2022/01/19 06:07:04;;;;;;;120.77;55.33;;;3.70;99.90;;;;;;4989841;28;20049;-73
2022/01/19 06:12:00;;;;;;;111.47;56.03;;;3.70;99.90;;;;;;4993930;28;20045;-74
2022/01/19 06:14:26;;;;;;;113.00;55.33;;;3.70;99.90;;;;;;4993460;28;20461;-74
2022/01/19 06:16:52;;;;;;;108.70;54.97;;;3.70;99.90;;;;;;4993946;28;20081;-74
2022/01/19 06:19:19;;;;;;;115.50;56.70;;;3.70;99.90;;;;;;4991964;28;20133;-74
2022/01/19 06:21:45;;;;;;;113.53;55.30;;;3.80;99.90;;;;;;5004542;28;20053;-74
2022/01/19 06:24:11;;;;;;;118.10;56.87;;;3.70;99.90;;;;;;5009502;28;20044;-74
2022/01/19 06:26:38;;;;;;;105.23;52.60;;;3.70;99.90;;;;;;5008302;28;20408;-75
2022/01/19 06:29:04;;;;;;;117.70;54.27;;;3.70;99.90;;;;;;5010142;28;20049;-74
2022/01/19 06:31:30;;;;;;;111.13;54.80;;;3.70;99.90;;;;;;5017527;28;20511;-74
2022/01/19 06:33:56;;;;;;;113.63;56.47;;;3.70;99.90;;;;;;5009885;28;20107;-74
2022/01/19 06:36:23;;;;;;;109.33;55.80;;;3.70;99.90;;;;;;5010028;28;20480;-74
2022/01/19 06:38:49;;;;;;;110.97;55.27;;;3.80;99.90;;;;;;5019853;28;20045;-74
2022/01/19 06:41:14;;;;;;;111.23;56.77;;;3.70;99.90;;;;;;5023155;28;20049;-74
2022/01/19 06:43:40;;;;;;;109.40;56.87;;;3.70;99.90;;;;;;5016279;28;20420;-74
2022/01/19 06:46:06;;;;;;;100.40;54.73;;;3.80;99.90;;;;;;4986159;28;20457;-74
2022/01/19 06:48:32;;;;;;;104.57;54.07;;;3.70;99.90;;;;;;5020973;28;20490;-75
2022/01/19 06:50:58;;;;;;;102.57;54.57;;;3.80;99.90;;;;;;4991011;28;20057;-73
2022/01/19 06:53:24;;;;;;;97.97;53.70;;;3.70;99.90;;;;;;5002702;28;20037;-73
2022/01/19 06:55:50;;;;;;;105.77;55.07;;;3.80;99.90;;;;;;4991445;28;20385;-75
2022/01/19 06:58:16;;;;;;;105.23;57.07;;;3.80;99.90;;;;;;4987750;28;20034;-75
2022/01/19 07:00:42;;;;;;;108.10;54.47;;;3.80;99.90;;;;;;5005571;28;20056;-75
2022/01/19 07:03:09;;;;;;;99.57;54.77;;;3.80;99.90;;;;;;5007793;28;20121;-75
2022/01/19 07:05:34;;;;;;;103.90;55.00;;;3.80;99.90;;;;;;5025359;28;20050;-75
2022/01/19 07:08:00;;;;;;;93.50;53.70;;;3.80;99.90;;;;;;5011796;28;20339;-75
2022/01/19 07:10:31;;;;;;;95.83;54.93;;;3.80;99.90;;;;;;5012679;28;20041;-74
2022/01/19 07:13:00;;;;;;;;;;;3.80;99.90;;;;;;5027961;28;20500;-75
2022/01/19 07:15:26;;;;;;;93.10;53.77;;;3.80;99.90;;;;;;5025222;28;20368;-75
2022/01/19 07:17:52;;;;;;;92.57;55.60;;;3.80;99.90;;;;;;4993354;28;20052;-75
2022/01/19 07:20:18;;;;;;;94.70;53.20;;;3.80;99.90;;;;;;4996690;28;20037;-75
2022/01/19 07:22:43;;;;;;;88.03;52.17;;;3.80;99.90;;;;;;5029049;28;20049;-75
2022/01/19 07:25:09;;;;;;;97.33;53.53;;;3.80;99.90;;;;;;5023853;28;20044;-75
2022/01/19 07:27:35;;;;;;;93.13;52.33;;;3.70;99.90;;;;;;5021407;28;20511;-75
2022/01/19 07:30:02;;;;;;;86.40;50.87;;;3.70;99.90;;;;;;5029015;28;20059;-74
2022/01/19 07:32:31;;;;;;;91.77;52.00;;;3.80;99.90;;;;;;5044681;28;20044;-75
2022/01/19 07:34:57;;;;;;;84.60;52.13;;;3.80;99.90;;;;;;4994377;28;20036;-75
2022/01/19 07:37:23;;;;;;;81.90;51.00;;;3.80;99.90;;;;;;5008957;28;20067;-74
2022/01/19 07:39:48;;;;;;;80.70;48.27;;;3.70;99.90;;;;;;5027017;28;20041;-74
2022/01/19 07:42:17;;;;;;;78.73;49.30;;;3.80;99.90;;;;;;5010795;28;20045;-74
2022/01/19 07:44:43;;;;;;;78.20;47.57;;;3.80;99.90;;;;;;5031309;28;20084;-75
2022/01/19 07:47:09;;;;;;;73.90;45.30;;;3.80;99.90;;;;;;5029096;28;20503;-75
2022/01/19 07:49:34;;;;;;;69.03;44.97;;;3.80;99.90;;;;;;4995562;28;20131;-74
2022/01/19 07:52:00;;;;;;;69.87;43.73;;;3.80;99.90;;;;;;4991574;28;20060;-74
2022/01/19 07:54:26;;;;;;;68.40;44.40;;;3.70;99.90;;;;;;5013382;28;20067;-74
2022/01/19 07:56:52;;;;;;;69.40;46.23;;;3.80;99.90;;;;;;5024752;28;20041;-75
2022/01/19 07:59:18;;;;;;;72.97;45.77;;;3.70;99.90;;;;;;5029236;28;20372;-75
2022/01/19 08:01:44;;;;;;;68.80;44.07;;;3.70;99.90;;;;;;5030683;28;20049;-75
2022/01/19 08:04:10;;;;;;;72.17;46.23;;;3.70;99.90;;;;;;5026125;28;20044;-75
2022/01/19 08:06:36;;;;;;;71.50;46.07;;;3.70;99.90;;;;;;5026819;28;20052;-75
2022/01/19 08:09:03;;;;;;;70.97;46.37;;;3.80;99.90;;;;;;5043222;28;20398;-75
2022/01/19 08:11:29;;;;;;;69.63;46.37;;;3.80;99.90;;;;;;5031013;28;20059;-75
2022/01/19 08:13:55;;;;;;;73.57;47.10;;;3.70;99.90;;;;;;5012463;28;20048;-75
2022/01/19 08:16:21;;;;;;;70.37;45.40;;;3.80;99.90;;;;;;5027492;28;20033;-75
2022/01/19 08:18:47;;;;;;;67.90;45.47;;;3.80;99.90;;;;;;5029255;28;20044;-75
2022/01/19 08:21:13;;;;;;;73.87;46.53;;;3.80;99.90;;;;;;5029610;28;20029;-75
2022/01/19 08:23:39;;;;;;;74.73;49.40;;;3.90;99.90;;;;;;5027593;28;20277;-75
2022/01/19 08:26:06;;;;;;;67.77;45.97;;;3.80;99.90;;;;;;5011587;28;20075;-75
2022/01/19 08:28:31;;;;;;;74.57;44.10;;;3.80;99.90;;;;;;5047354;28;20132;-75
2022/01/19 08:30:57;;;;;;;77.17;47.13;;;3.80;99.90;;;;;;4993328;28;20140;-75
2022/01/19 08:33:23;;;;;;;73.03;46.27;;;3.80;99.90;;;;;;5031486;28;20092;-75
2022/01/19 08:35:51;;;;;;;70.07;45.47;;;3.80;99.90;;;;;;5030472;28;20057;-75
2022/01/19 08:38:17;;;;;;;73.57;47.00;;;3.80;99.90;;;;;;5043740;28;20491;-75
2022/01/19 08:40:43;;;;;;;70.90;45.90;;;3.80;99.90;;;;;;5011154;28;20057;-75
2022/01/19 08:43:09;;;;;;;73.43;45.93;;;3.80;99.90;;;;;;5029859;28;20035;-74
2022/01/19 08:45:35;;;;;;;72.13;46.97;;;3.80;99.90;;;;;;5047933;28;20075;-74
2022/01/19 08:48:02;;;;;;;73.43;47.33;;;3.80;99.90;;;;;;5026664;28;20128;-74
2022/01/19 08:50:28;;;;;;;80.03;48.60;;;3.80;99.90;;;;;;5011754;28;20048;-74
2022/01/19 08:52:54;;;;;;;79.03;48.50;;;3.90;99.90;;;;;;5023883;28;20522;-74
2022/01/19 08:55:19;;;;;;;76.03;47.67;;;3.80;99.90;;;;;;5026113;28;20041;-74
2022/01/19 08:57:46;;;;;;;75.97;47.43;;;3.90;99.90;;;;;;5025446;28;20069;-74
2022/01/19 09:00:15;;;;;;;77.83;48.83;;;3.90;99.90;;;;;;5013810;28;20041;-75
2022/01/19 09:02:41;;;;;;;77.93;48.50;;;3.90;99.90;;;;;;5049594;28;20045;-74
2022/01/19 09:05:08;;;;;;;71.43;46.33;;;4.00;99.90;;;;;;5044431;28;20492;-75
2022/01/19 09:07:34;;;;;;;72.53;48.43;;;3.90;99.90;;;;;;5009137;28;20048;-75
2022/01/19 09:10:00;;;;;;;69.77;47.47;;;3.90;99.90;;;;;;5026730;28;20110;-75
2022/01/19 09:12:26;;;;;;;74.83;50.83;;;3.90;99.90;;;;;;5025623;28;20041;-74
2022/01/19 09:14:52;;;;;;;77.00;50.53;;;4.00;99.90;;;;;;5006557;28;20663;-74
2022/01/19 09:17:18;;;;;;;70.67;49.80;;;4.00;99.90;;;;;;5005815;28;20098;-75
2022/01/19 09:19:44;;;;;;;76.37;51.90;;;4.00;99.90;;;;;;5026145;28;20052;-74
2022/01/19 09:22:11;;;;;;;72.87;48.20;;;4.00;99.90;;;;;;5025191;28;20156;-74
2022/01/19 09:24:39;;;;;;;72.07;48.10;;;4.00;99.90;;;;;;5006476;28;20120;-75
2022/01/19 09:27:05;;;;;;;73.40;52.03;;;4.00;99.90;;;;;;5026726;28;20518;-75
2022/01/19 09:29:31;;;;;;;74.67;51.17;;;4.00;99.90;;;;;;5003840;28;20037;-75
2022/01/19 09:32:01;;;;;;;74.93;52.40;;;4.00;99.90;;;;;;5022472;28;20049;-74
2022/01/19 09:34:27;;;;;;;79.40;51.67;;;4.10;99.90;;;;;;5029981;28;20040;-74
2022/01/19 09:36:53;;;;;;;77.87;52.90;;;4.00;99.90;;;;;;5029843;28;20044;-74
2022/01/19 09:39:25;;;;;;;82.97;54.23;;;4.10;99.90;;;;;;5041328;28;20052;-74
2022/01/19 09:41:52;;;;;;;77.73;51.90;;;4.10;99.90;;;;;;5010449;28;20415;-75
2022/01/19 09:44:19;;;;;;;83.23;53.63;;;4.10;99.90;;;;;;5011881;28;20550;-74
2022/01/19 09:46:46;;;;;;;83.90;54.97;;;4.10;99.90;;;;;;5007271;28;20152;-74
2022/01/19 09:49:12;;;;;;;78.10;52.30;;;4.10;99.90;;;;;;5043360;28;20111;-74
2022/01/19 09:51:43;;;;;;;79.73;53.97;;;4.10;99.90;;;;;;4985001;28;20051;-74
2022/01/19 09:54:12;;;;;;;79.70;53.72;;;4.10;99.90;;;;;;5010934;28;20124;-74
2022/01/19 09:56:41;;;;;;;76.33;52.93;;;4.10;99.90;;;;;;5011814;28;20044;-74
2022/01/19 09:59:08;;;;;;;80.47;53.77;;;4.20;99.90;;;;;;5027689;28;20407;-73
2022/01/19 10:01:34;;;;;;;73.40;51.53;;;4.10;99.90;;;;;;5028835;28;20504;-74
2022/01/19 10:04:16;;;;;;;76.43;53.33;;;4.20;99.90;;;;;;5041044;28;20057;-74
2022/01/19 10:06:42;;;;;;;77.70;52.90;;;4.20;99.90;;;;;;5029564;28;20059;-73
2022/01/19 10:09:08;;;;;;;77.27;53.97;;;4.20;99.90;;;;;;5028391;28;20407;-74
2022/01/19 10:16:59;;;;;;;73.95;52.55;;;4.40;99.90;;;;;;5028985;28;20083;-74
2022/01/19 10:19:38;;;;;;;73.63;52.37;;;4.40;99.90;;;;;;5026971;28;20128;-74
2022/01/19 10:22:04;;;;;;;75.73;53.83;;;4.40;99.90;;;;;;5044809;28;20048;-74
2022/01/19 10:24:47;;;;;;;78.93;54.80;;;4.40;99.90;;;;;;5029573;28;20053;-74
2022/01/19 10:27:27;;;;;;;76.37;50.10;;;4.40;99.90;;;;;;5028645;28;20407;-74
2022/01/19 10:30:06;;;;;;;74.47;52.50;;;4.40;99.90;;;;;;5045845;28;20529;-74
2022/01/19 10:32:35;;;;;;;75.97;52.37;;;4.40;99.90;;;;;;5011907;28;20053;-74
2022/01/19 10:35:16;;;;;;;74.93;52.97;;;4.40;99.90;;;;;;5029285;28;20499;-74
2022/01/19 10:37:43;;;;;;;79.30;54.17;;;4.50;99.90;;;;;;5033290;28;20419;-74
2022/01/19 10:40:15;;;;;;;78.50;54.30;;;4.50;99.90;;;;;;5033182;28;20116;-74
2022/01/19 10:42:41;;;;;;;85.33;56.40;;;4.50;99.90;;;;;;5030282;28;20522;-74
2022/01/19 10:45:08;;;;;;;82.50;56.60;;;4.50;99.90;;;;;;5016422;28;20041;-74
2022/01/19 10:47:56;;;;;;;76.73;55.23;;;4.50;99.90;;;;;;5033077;28;20045;-74
2022/01/19 10:50:30;;;;;;;82.30;56.70;;;4.50;99.90;;;;;;5031486;28;20507;-74
2022/01/19 10:52:59;;;;;;;82.10;57.53;;;4.60;99.90;;;;;;5032769;28;20049;-74
2022/01/19 10:55:25;;;;;;;82.17;57.67;;;4.50;99.90;;;;;;5015961;28;20052;-74
2022/01/19 10:57:52;;;;;;;85.00;57.00;;;4.60;99.90;;;;;;5048886;28;20519;-74
2022/01/19 11:00:22;;;;;;;78.87;56.77;;;4.60;99.90;;;;;;5032711;28;20124;-74
2022/01/19 11:02:53;;;;;;;83.37;55.80;;;4.60;99.90;;;;;;5049242;28;20074;-74
2022/01/19 11:05:41;;;;;;;84.60;58.00;;;4.60;99.90;;;;;;5031647;28;20045;-74
2022/01/19 11:08:08;;;;;;;83.57;59.20;;;4.60;99.90;;;;;;5033507;28;20045;-74
2022/01/19 11:10:34;;;;;;;83.57;58.17;;;4.60;99.90;;;;;;5031427;28;20049;-74
2022/01/19 11:13:00;;;;;;;86.00;59.80;;;4.60;99.90;;;;;;5049568;28;20052;-75
2022/01/19 11:15:26;;;;;;;84.53;60.47;;;4.60;99.90;;;;;;5031287;28;20044;-74
2022/01/19 11:17:52;;;;;;;88.50;59.83;;;4.60;99.90;;;;;;4999004;28;20488;-74
2022/01/19 11:20:23;;;;;;;90.53;61.47;;;4.60;99.90;;;;;;5013822;28;20076;-74
2022/01/19 11:23:21;;;;;;;92.93;62.60;;;4.60;99.90;;;;;;5014002;28;20179;-73
2022/01/19 11:26:04;;;;;;;92.37;62.23;;;4.60;99.90;;;;;;5041823;28;20128;-74
2022/01/19 11:28:35;;;;;;;108.40;64.57;;;4.50;99.90;;;;;;5001776;28;20053;-74
2022/01/19 11:31:08;;;;;;;98.73;63.57;;;4.50;99.90;;;;;;5009282;28;20053;-74
2022/01/19 11:33:51;;;;;;;105.07;67.17;;;4.50;99.90;;;;;;5010533;28;20576;-74
2022/01/19 11:36:29;;;;;;;106.03;65.40;;;4.50;99.90;;;;;;5012400;28;20456;-75
2022/01/19 11:39:09;;;;;;;104.43;66.83;;;4.50;99.90;;;;;;5020517;28;20060;-74
2022/01/19 11:41:55;;;;;;;111.10;69.77;;;4.60;99.90;;;;;;5028415;28;20617;-74
2022/01/19 11:44:41;;;;;;;109.70;68.90;;;4.60;99.90;;;;;;5023559;28;20044;-74
2022/01/19 11:47:13;;;;;;;112.73;72.43;;;4.60;99.90;;;;;;5010623;28;20049;-74
2022/01/19 11:50:08;;;;;;;113.43;71.57;;;4.60;99.90;;;;;;5008353;28;20107;-74
2022/01/19 11:52:40;;;;;;;118.20;72.67;;;4.60;99.90;;;;;;5026751;28;20052;-74
2022/01/19 11:55:39;;;;;;;113.40;71.73;;;4.70;99.90;;;;;;5023558;28;20059;-74
2022/01/19 11:58:15;;;;;;;117.53;70.07;;;4.70;99.90;;;;;;4971557;28;20470;-74
2022/01/19 12:00:45;;;;;;;118.80;69.40;;;4.70;99.90;;;;;;5031919;28;20078;-73
2022/01/19 12:03:32;;;;;;;125.03;75.83;;;4.70;99.90;;;;;;5017850;28;20045;-74
2022/01/19 12:05:58;;;;;;;123.20;74.03;;;4.70;99.90;;;;;;5016171;28;20051;-74
2022/01/19 12:08:38;;;;;;;122.37;73.23;;;4.70;99.90;;;;;;5011887;28;20107;-74
2022/01/19 12:11:14;;;;;;;118.80;72.45;;;4.70;99.90;;;;;;5028068;28;20136;-74
2022/01/19 12:16:50;;;;;;;118.23;70.57;;;4.80;99.90;;;;;;5046634;28;20214;-74
2022/01/19 12:19:06;;;;;;;119.33;72.30;;;4.90;99.90;;;;;;5046708;28;20052;-74
2022/01/19 12:21:31;;;;;;;120.63;71.73;;;4.90;99.90;;;;;;5029979;28;20048;-74
2022/01/19 12:24:34;;;;;;;120.10;70.63;;;4.90;99.90;;;;;;5015186;28;20107;-74
2022/01/19 12:27:04;;;;;;;111.43;65.97;;;4.90;99.90;;;;;;5032008;28;20549;-74
2022/01/19 12:29:33;;;;;;;118.30;72.25;;;5.00;99.90;;;;;;5026973;28;20041;-74
2022/01/19 12:32:04;;;;;;;106.17;65.10;;;4.90;99.90;;;;;;5022142;28;20048;-74
2022/01/19 12:34:47;;;;;;;116.43;70.07;;;5.00;99.90;;;;;;5014632;28;20057;-74
2022/01/19 12:37:42;;;;;;;114.33;67.40;;;5.00;99.90;;;;;;4995735;28;20557;-74
2022/01/19 12:40:17;;;;;;;110.90;68.43;;;5.00;99.90;;;;;;5010419;28;20484;-74
2022/01/19 12:42:54;;;;;;;113.17;66.87;;;5.10;99.90;;;;;;4995827;28;20562;-75
2022/01/19 12:45:26;;;;;;;107.23;66.70;;;5.10;99.90;;;;;;5018988;28;20123;-74
2022/01/19 12:47:55;;;;;;;114.83;66.40;;;5.10;99.90;;;;;;5021648;28;20045;-74
2022/01/19 12:50:21;;;;;;;109.00;67.23;;;5.10;99.90;;;;;;5024459;28;20049;-75
2022/01/19 12:52:53;;;;;;;111.60;65.93;;;5.10;99.90;;;;;;5026711;28;20110;-75
2022/01/19 12:55:26;;;;;;;106.17;63.90;;;5.10;99.90;;;;;;5011876;28;20055;-74
2022/01/19 12:57:57;;;;;;;107.63;68.50;;;5.10;99.90;;;;;;5029435;28;20120;-75
2022/01/19 13:00:30;;;;;;;109.60;64.13;;;5.10;99.90;;;;;;5027387;28;20036;-74
2022/01/19 13:02:59;;;;;;;109.83;68.20;;;5.10;99.90;;;;;;5027851;28;20053;-75
2022/01/19 13:05:30;;;;;;;107.97;64.83;;;5.10;99.90;;;;;;5013831;28;20487;-75
2022/01/19 13:08:02;;;;;;;102.67;65.43;;;5.10;99.90;;;;;;5031102;28;20055;-75
2022/01/19 13:10:47;;;;;;;100.77;60.53;;;5.10;99.90;;;;;;5009504;28;20044;-76
2022/01/19 13:13:25;;;;;;;99.97;62.97;;;5.10;99.90;;;;;;5014720;28;20053;-75
2022/01/19 13:16:00;;;;;;;98.60;63.63;;;5.20;99.90;;;;;;5011965;28;20041;-76
2022/01/19 13:18:39;;;;;;;94.97;59.60;;;5.20;99.90;;;;;;5024490;28;20150;-75
2022/01/19 13:21:07;;;;;;;99.57;61.00;;;5.20;99.90;;;;;;5038858;28;20053;-75
2022/01/19 13:23:36;;;;;;;98.77;59.83;;;5.20;99.90;;;;;;5025490;28;20045;-75
2022/01/19 13:26:07;;;;;;;96.70;60.23;;;5.40;99.90;;;;;;5023066;28;20042;-75
2022/01/19 13:28:35;;;;;;;94.13;59.93;;;5.30;99.90;;;;;;5026207;28;20044;-75
2022/01/19 13:31:19;;;;;;;89.67;57.13;;;5.30;99.90;;;;;;5016749;28;20152;-75
2022/01/19 13:34:00;;;;;;;89.10;56.63;;;5.40;99.90;;;;;;5021316;28;20128;-75
2022/01/19 13:36:27;;;;;;;88.43;55.07;;;5.40;99.90;;;;;;5004398;28;20056;-75
2022/01/19 13:38:54;;;;;;;86.80;53.63;;;5.50;99.90;;;;;;5023077;28;20412;-75
2022/01/19 13:41:20;;;;;;;80.37;50.70;;;5.40;99.90;;;;;;5018699;28;20042;-75
2022/01/19 13:43:46;;;;;;;79.37;50.67;;;5.40;99.90;;;;;;5022144;28;20387;-75
2022/01/19 13:46:25;;;;;;;84.07;54.97;;;5.40;99.90;;;;;;4973604;28;20040;-75
2022/01/19 13:49:01;;;;;;;78.73;51.37;;;5.50;99.90;;;;;;5022284;28;20132;-76
2022/01/19 13:51:29;;;;;;;82.40;52.30;;;5.40;99.90;;;;;;5024033;28;20127;-76
2022/01/19 13:53:59;;;;;;;80.13;52.70;;;5.50;99.90;;;;;;5023528;28;20051;-75
2022/01/19 13:56:35;;;;;;;73.70;46.90;;;5.40;99.90;;;;;;5005535;28;20049;-76
2022/01/19 13:59:04;;;;;;;74.23;49.30;;;5.40;99.90;;;;;;5020893;28;20041;-76
2022/01/19 14:01:48;;;;;;;80.37;50.70;;;5.50;99.90;;;;;;5018229;28;20459;-76
2022/01/19 14:04:14;;;;;;;73.93;47.73;;;5.40;99.90;;;;;;5016972;28;20057;-75
2022/01/19 14:06:42;;;;;;;79.93;51.27;;;5.40;99.90;;;;;;5025971;28;20057;-75
2022/01/19 14:09:18;;;;;;;74.37;47.67;;;5.40;99.90;;;;;;5025936;28;20049;-75